sensor_id;sensor_type;location;lat;lon;timestamp;temperature;humidity
17619;DHT22;8928;51.678;6.074;2022-12-26T00:01:22;9.80;99.90
17619;DHT22;8928;51.678;6.074;2022-12-26T00:04:10;9.80;99.90
17619;DHT22;8928;51.678;6.074;2022-12-26T00:06:57;9.80;99.90
17619;DHT22;8928;51.678;6.074;2022-12-26T00:09:44;9.80;99.90
17619;DHT22;8928;51.678;6.074;2022-12-26T00:12:31;9.80;99.90
17619;DHT22;8928;51.678;6.074;2022-12-26T00:15:18;9.90;99.90
17619;DHT22;8928;51.678;6.074;2022-12-26T00:18:06;9.90;99.90
17619;DHT22;8928;51.678;6.074;2022-12-26T00:20:53;10.00;99.90
17619;DHT22;8928;51.678;6.074;2022-12-26T00:23:41;10.00;99.90
17619;DHT22;8928;51.678;6.074;2022-12-26T00:26:31;9.90;99.90
17619;DHT22;8928;51.678;6.074;2022-12-26T00:29:18;9.90;99.90
17619;DHT22;8928;51.678;6.074;2022-12-26T00:32:05;9.80;99.90
17619;DHT22;8928;51.678;6.074;2022-12-26T00:34:53;9.80;99.90
17619;DHT22;8928;51.678;6.074;2022-12-26T00:37:40;9.80;99.90
17619;DHT22;8928;51.678;6.074;2022-12-26T00:40:27;9.90;99.90
17619;DHT22;8928;51.678;6.074;2022-12-26T00:43:14;10.00;99.90
17619;DHT22;8928;51.678;6.074;2022-12-26T00:46:03;10.10;99.90
17619;DHT22;8928;51.678;6.074;2022-12-26T00:48:51;10.10;99.90
17619;DHT22;8928;51.678;6.074;2022-12-26T00:51:39;10.10;99.90
17619;DHT22;8928;51.678;6.074;2022-12-26T00:54:26;10.10;99.90
17619;DHT22;8928;51.678;6.074;2022-12-26T00:57:14;10.10;99.90
17619;DHT22;8928;51.678;6.074;2022-12-26T01:00:00;10.10;99.90
17619;DHT22;8928;51.678;6.074;2022-12-26T01:02:47;10.10;99.90
17619;DHT22;8928;51.678;6.074;2022-12-26T01:05:35;10.00;99.90
17619;DHT22;8928;51.678;6.074;2022-12-26T01:08:27;10.00;99.90
17619;DHT22;8928;51.678;6.074;2022-12-26T01:11:15;10.00;99.90
17619;DHT22;8928;51.678;6.074;2022-12-26T01:14:22;10.00;99.90
17619;DHT22;8928;51.678;6.074;2022-12-26T01:17:09;10.10;99.90
17619;DHT22;8928;51.678;6.074;2022-12-26T01:19:56;10.10;99.90
17619;DHT22;8928;51.678;6.074;2022-12-26T01:22:43;10.10;99.90
17619;DHT22;8928;51.678;6.074;2022-12-26T01:25:32;10.10;99.90
17619;DHT22;8928;51.678;6.074;2022-12-26T01:28:19;10.10;99.90
17619;DHT22;8928;51.678;6.074;2022-12-26T01:31:06;10.10;99.90
17619;DHT22;8928;51.678;6.074;2022-12-26T01:33:53;10.10;99.90
17619;DHT22;8928;51.678;6.074;2022-12-26T01:36:40;10.10;99.90
17619;DHT22;8928;51.678;6.074;2022-12-26T01:39:27;10.10;99.90
17619;DHT22;8928;51.678;6.074;2022-12-26T01:42:17;10.10;99.90
17619;DHT22;8928;51.678;6.074;2022-12-26T01:45:08;10.10;99.90
17619;DHT22;8928;51.678;6.074;2022-12-26T01:48:10;10.00;99.90
17619;DHT22;8928;51.678;6.074;2022-12-26T01:51:00;10.00;99.90
17619;DHT22;8928;51.678;6.074;2022-12-26T01:53:50;10.10;99.90
17619;DHT22;8928;51.678;6.074;2022-12-26T01:56:41;10.10;99.90
17619;DHT22;8928;51.678;6.074;2022-12-26T01:59:31;10.10;99.90
17619;DHT22;8928;51.678;6.074;2022-12-26T02:02:21;10.10;99.90
17619;DHT22;8928;51.678;6.074;2022-12-26T02:05:08;10.00;99.90
17619;DHT22;8928;51.678;6.074;2022-12-26T02:08:16;10.00;99.90
17619;DHT22;8928;51.678;6.074;2022-12-26T02:11:09;10.10;99.90
17619;DHT22;8928;51.678;6.074;2022-12-26T02:13:58;10.00;99.90
17619;DHT22;8928;51.678;6.074;2022-12-26T02:16:47;10.00;99.90
17619;DHT22;8928;51.678;6.074;2022-12-26T02:19:45;10.00;99.90
17619;DHT22;8928;51.678;6.074;2022-12-26T02:32:15;9.80;99.90
17619;DHT22;8928;51.678;6.074;2022-12-26T02:35:09;9.80;99.90
17619;DHT22;8928;51.678;6.074;2022-12-26T02:38:09;9.80;99.90
17619;DHT22;8928;51.678;6.074;2022-12-26T02:41:09;9.70;99.90
17619;DHT22;8928;51.678;6.074;2022-12-26T02:44:11;9.70;99.90
17619;DHT22;8928;51.678;6.074;2022-12-26T02:47:25;9.70;99.90
17619;DHT22;8928;51.678;6.074;2022-12-26T02:50:23;9.70;99.90
17619;DHT22;8928;51.678;6.074;2022-12-26T02:53:33;9.70;99.90
17619;DHT22;8928;51.678;6.074;2022-12-26T02:56:47;9.60;99.90
17619;DHT22;8928;51.678;6.074;2022-12-26T02:59:57;9.50;99.90
17619;DHT22;8928;51.678;6.074;2022-12-26T03:03:06;9.40;99.90
17619;DHT22;8928;51.678;6.074;2022-12-26T03:06:14;9.30;99.90
17619;DHT22;8928;51.678;6.074;2022-12-26T03:09:22;9.20;99.90
17619;DHT22;8928;51.678;6.074;2022-12-26T03:12:34;9.10;99.90
17619;DHT22;8928;51.678;6.074;2022-12-26T03:15:43;9.10;99.90
17619;DHT22;8928;51.678;6.074;2022-12-26T03:18:52;9.10;99.90
17619;DHT22;8928;51.678;6.074;2022-12-26T03:21:42;9.30;99.90
17619;DHT22;8928;51.678;6.074;2022-12-26T03:24:30;9.30;99.90
17619;DHT22;8928;51.678;6.074;2022-12-26T03:27:37;9.50;99.90
17619;DHT22;8928;51.678;6.074;2022-12-26T03:30:23;9.50;99.90
17619;DHT22;8928;51.678;6.074;2022-12-26T03:33:32;9.50;99.90
17619;DHT22;8928;51.678;6.074;2022-12-26T03:36:49;9.50;99.90
17619;DHT22;8928;51.678;6.074;2022-12-26T03:39:48;9.50;99.90
17619;DHT22;8928;51.678;6.074;2022-12-26T03:43:04;9.50;99.90
17619;DHT22;8928;51.678;6.074;2022-12-26T03:46:16;9.50;99.90
17619;DHT22;8928;51.678;6.074;2022-12-26T03:49:26;9.60;99.90
17619;DHT22;8928;51.678;6.074;2022-12-26T03:52:38;9.50;99.90
17619;DHT22;8928;51.678;6.074;2022-12-26T03:55:51;9.60;99.90
17619;DHT22;8928;51.678;6.074;2022-12-26T03:59:03;9.50;99.90
17619;DHT22;8928;51.678;6.074;2022-12-26T04:02:11;9.50;99.90
17619;DHT22;8928;51.678;6.074;2022-12-26T04:05:18;9.50;99.90
17619;DHT22;8928;51.678;6.074;2022-12-26T04:08:30;9.40;99.90
17619;DHT22;8928;51.678;6.074;2022-12-26T04:11:38;9.40;99.90
17619;DHT22;8928;51.678;6.074;2022-12-26T04:14:48;9.50;99.90
17619;DHT22;8928;51.678;6.074;2022-12-26T04:18:09;9.50;99.90
17619;DHT22;8928;51.678;6.074;2022-12-26T04:21:32;9.50;99.90
17619;DHT22;8928;51.678;6.074;2022-12-26T04:24:42;9.50;99.90
17619;DHT22;8928;51.678;6.074;2022-12-26T04:27:45;9.50;99.90
17619;DHT22;8928;51.678;6.074;2022-12-26T04:30:53;9.50;99.90
17619;DHT22;8928;51.678;6.074;2022-12-26T04:34:02;9.50;99.90
17619;DHT22;8928;51.678;6.074;2022-12-26T04:37:17;9.40;99.90
17619;DHT22;8928;51.678;6.074;2022-12-26T04:40:28;9.30;99.90
17619;DHT22;8928;51.678;6.074;2022-12-26T04:43:34;9.20;99.90
17619;DHT22;8928;51.678;6.074;2022-12-26T04:46:41;9.20;99.90
17619;DHT22;8928;51.678;6.074;2022-12-26T04:49:29;9.20;99.90
17619;DHT22;8928;51.678;6.074;2022-12-26T04:52:30;9.10;99.90
17619;DHT22;8928;51.678;6.074;2022-12-26T04:55:33;9.10;99.90
17619;DHT22;8928;51.678;6.074;2022-12-26T04:58:20;9.10;99.90
17619;DHT22;8928;51.678;6.074;2022-12-26T05:01:09;9.00;99.90
17619;DHT22;8928;51.678;6.074;2022-12-26T05:04:19;8.90;99.90
17619;DHT22;8928;51.678;6.074;2022-12-26T05:07:36;8.90;99.90
17619;DHT22;8928;51.678;6.074;2022-12-26T05:10:42;8.90;99.90
17619;DHT22;8928;51.678;6.074;2022-12-26T05:13:29;8.80;99.90
17619;DHT22;8928;51.678;6.074;2022-12-26T05:16:16;8.80;99.90
17619;DHT22;8928;51.678;6.074;2022-12-26T05:19:20;8.80;99.90
17619;DHT22;8928;51.678;6.074;2022-12-26T05:22:29;8.70;99.90
17619;DHT22;8928;51.678;6.074;2022-12-26T05:25:36;8.70;99.90
17619;DHT22;8928;51.678;6.074;2022-12-26T05:28:45;8.80;99.90
17619;DHT22;8928;51.678;6.074;2022-12-26T05:31:32;8.80;99.90
17619;DHT22;8928;51.678;6.074;2022-12-26T05:34:19;8.80;99.90
17619;DHT22;8928;51.678;6.074;2022-12-26T05:37:06;8.70;99.90
17619;DHT22;8928;51.678;6.074;2022-12-26T05:39:53;8.70;99.90
17619;DHT22;8928;51.678;6.074;2022-12-26T05:42:40;8.70;99.90
17619;DHT22;8928;51.678;6.074;2022-12-26T05:45:28;8.70;99.90
17619;DHT22;8928;51.678;6.074;2022-12-26T05:48:15;8.70;99.90
17619;DHT22;8928;51.678;6.074;2022-12-26T05:51:03;8.70;99.90
17619;DHT22;8928;51.678;6.074;2022-12-26T05:53:50;8.70;99.90
17619;DHT22;8928;51.678;6.074;2022-12-26T05:56:38;8.60;99.90
17619;DHT22;8928;51.678;6.074;2022-12-26T05:59:25;8.60;99.90
17619;DHT22;8928;51.678;6.074;2022-12-26T06:02:13;8.50;99.90
17619;DHT22;8928;51.678;6.074;2022-12-26T06:05:00;8.40;99.90
17619;DHT22;8928;51.678;6.074;2022-12-26T06:07:47;8.30;99.90
17619;DHT22;8928;51.678;6.074;2022-12-26T06:10:34;8.30;99.90
17619;DHT22;8928;51.678;6.074;2022-12-26T06:13:22;8.20;99.90
17619;DHT22;8928;51.678;6.074;2022-12-26T06:16:10;8.20;99.90
17619;DHT22;8928;51.678;6.074;2022-12-26T06:18:59;8.10;99.90
17619;DHT22;8928;51.678;6.074;2022-12-26T06:21:46;8.00;99.90
17619;DHT22;8928;51.678;6.074;2022-12-26T06:24:33;7.90;99.90
17619;DHT22;8928;51.678;6.074;2022-12-26T06:27:20;7.90;99.90
17619;DHT22;8928;51.678;6.074;2022-12-26T06:30:08;7.80;99.90
17619;DHT22;8928;51.678;6.074;2022-12-26T06:32:55;7.80;99.90
17619;DHT22;8928;51.678;6.074;2022-12-26T06:35:44;7.70;99.90
17619;DHT22;8928;51.678;6.074;2022-12-26T06:38:32;7.70;99.90
17619;DHT22;8928;51.678;6.074;2022-12-26T06:41:21;7.70;99.90
17619;DHT22;8928;51.678;6.074;2022-12-26T06:44:08;7.60;99.90
17619;DHT22;8928;51.678;6.074;2022-12-26T06:46:55;7.60;99.90
17619;DHT22;8928;51.678;6.074;2022-12-26T06:49:42;7.70;99.90
17619;DHT22;8928;51.678;6.074;2022-12-26T06:52:31;8.00;99.90
17619;DHT22;8928;51.678;6.074;2022-12-26T06:55:18;8.20;99.90
17619;DHT22;8928;51.678;6.074;2022-12-26T06:58:05;8.40;99.90
17619;DHT22;8928;51.678;6.074;2022-12-26T07:00:52;8.50;99.90
17619;DHT22;8928;51.678;6.074;2022-12-26T07:03:39;8.50;99.90
17619;DHT22;8928;51.678;6.074;2022-12-26T07:06:29;8.60;99.90
17619;DHT22;8928;51.678;6.074;2022-12-26T07:09:18;8.60;99.90
17619;DHT22;8928;51.678;6.074;2022-12-26T07:12:06;8.60;99.90
17619;DHT22;8928;51.678;6.074;2022-12-26T07:14:53;8.60;99.90
17619;DHT22;8928;51.678;6.074;2022-12-26T07:17:40;8.70;99.90
17619;DHT22;8928;51.678;6.074;2022-12-26T07:20:26;8.70;99.90
17619;DHT22;8928;51.678;6.074;2022-12-26T07:23:13;8.80;99.90
17619;DHT22;8928;51.678;6.074;2022-12-26T07:26:02;8.80;99.90
17619;DHT22;8928;51.678;6.074;2022-12-26T07:28:52;8.70;99.90
17619;DHT22;8928;51.678;6.074;2022-12-26T07:31:40;8.70;99.90
17619;DHT22;8928;51.678;6.074;2022-12-26T07:34:27;8.60;99.90
17619;DHT22;8928;51.678;6.074;2022-12-26T07:37:15;8.50;99.90
17619;DHT22;8928;51.678;6.074;2022-12-26T07:40:03;8.50;99.90
17619;DHT22;8928;51.678;6.074;2022-12-26T07:42:53;8.50;99.90
17619;DHT22;8928;51.678;6.074;2022-12-26T07:45:40;8.40;99.90
17619;DHT22;8928;51.678;6.074;2022-12-26T07:48:29;8.40;99.90
17619;DHT22;8928;51.678;6.074;2022-12-26T07:51:16;8.30;99.90
17619;DHT22;8928;51.678;6.074;2022-12-26T07:54:03;8.30;99.90
17619;DHT22;8928;51.678;6.074;2022-12-26T07:56:50;8.20;99.90
17619;DHT22;8928;51.678;6.074;2022-12-26T07:59:38;8.30;99.90
17619;DHT22;8928;51.678;6.074;2022-12-26T08:02:25;8.30;99.90
17619;DHT22;8928;51.678;6.074;2022-12-26T08:05:12;8.30;99.90
17619;DHT22;8928;51.678;6.074;2022-12-26T08:07:59;8.20;99.90
17619;DHT22;8928;51.678;6.074;2022-12-26T08:10:46;8.20;99.90
17619;DHT22;8928;51.678;6.074;2022-12-26T08:13:34;8.10;99.90
17619;DHT22;8928;51.678;6.074;2022-12-26T08:16:22;8.20;99.90
17619;DHT22;8928;51.678;6.074;2022-12-26T08:19:10;8.10;99.90
17619;DHT22;8928;51.678;6.074;2022-12-26T08:21:57;8.10;99.90
17619;DHT22;8928;51.678;6.074;2022-12-26T08:24:44;8.20;99.90
17619;DHT22;8928;51.678;6.074;2022-12-26T08:27:31;8.20;99.90
17619;DHT22;8928;51.678;6.074;2022-12-26T08:30:18;8.30;99.90
17619;DHT22;8928;51.678;6.074;2022-12-26T08:33:08;8.40;99.90
17619;DHT22;8928;51.678;6.074;2022-12-26T08:35:55;8.40;99.90
17619;DHT22;8928;51.678;6.074;2022-12-26T08:38:46;8.40;99.90
17619;DHT22;8928;51.678;6.074;2022-12-26T08:41:33;8.40;99.90
17619;DHT22;8928;51.678;6.074;2022-12-26T08:44:20;8.40;99.90
17619;DHT22;8928;51.678;6.074;2022-12-26T08:47:07;8.50;99.90
17619;DHT22;8928;51.678;6.074;2022-12-26T08:49:56;8.50;99.90
17619;DHT22;8928;51.678;6.074;2022-12-26T08:52:43;8.50;99.90
17619;DHT22;8928;51.678;6.074;2022-12-26T08:55:30;8.60;99.90
17619;DHT22;8928;51.678;6.074;2022-12-26T08:58:17;8.70;99.90
17619;DHT22;8928;51.678;6.074;2022-12-26T09:01:05;8.90;99.90
17619;DHT22;8928;51.678;6.074;2022-12-26T09:03:53;9.10;99.90
17619;DHT22;8928;51.678;6.074;2022-12-26T09:06:42;9.30;99.90
17619;DHT22;8928;51.678;6.074;2022-12-26T09:09:29;9.40;99.90
17619;DHT22;8928;51.678;6.074;2022-12-26T09:12:16;9.50;99.90
17619;DHT22;8928;51.678;6.074;2022-12-26T09:15:04;9.50;99.90
17619;DHT22;8928;51.678;6.074;2022-12-26T09:17:51;9.60;99.90
17619;DHT22;8928;51.678;6.074;2022-12-26T09:20:38;9.70;99.90
17619;DHT22;8928;51.678;6.074;2022-12-26T09:23:27;9.70;99.90
17619;DHT22;8928;51.678;6.074;2022-12-26T09:26:15;9.60;99.90
17619;DHT22;8928;51.678;6.074;2022-12-26T09:29:03;9.60;99.90
17619;DHT22;8928;51.678;6.074;2022-12-26T09:31:50;9.60;99.90
17619;DHT22;8928;51.678;6.074;2022-12-26T09:34:40;9.60;99.90
17619;DHT22;8928;51.678;6.074;2022-12-26T09:37:27;9.80;99.90
17619;DHT22;8928;51.678;6.074;2022-12-26T09:40:22;9.90;99.90
17619;DHT22;8928;51.678;6.074;2022-12-26T09:43:22;10.00;99.90
17619;DHT22;8928;51.678;6.074;2022-12-26T09:46:17;10.00;99.90
17619;DHT22;8928;51.678;6.074;2022-12-26T09:49:12;10.00;99.90
17619;DHT22;8928;51.678;6.074;2022-12-26T09:52:04;10.10;99.90
17619;DHT22;8928;51.678;6.074;2022-12-26T09:54:55;10.20;99.90
17619;DHT22;8928;51.678;6.074;2022-12-26T09:57:47;10.40;99.90
17619;DHT22;8928;51.678;6.074;2022-12-26T10:00:42;10.50;99.90
17619;DHT22;8928;51.678;6.074;2022-12-26T10:03:33;10.50;99.90
17619;DHT22;8928;51.678;6.074;2022-12-26T10:06:24;10.50;99.90
17619;DHT22;8928;51.678;6.074;2022-12-26T10:12:47;10.60;99.90
17619;DHT22;8928;51.678;6.074;2022-12-26T10:15:41;10.50;99.90
17619;DHT22;8928;51.678;6.074;2022-12-26T10:18:36;10.50;99.90
17619;DHT22;8928;51.678;6.074;2022-12-26T10:21:34;10.40;99.90
17619;DHT22;8928;51.678;6.074;2022-12-26T10:24:27;10.30;99.90
17619;DHT22;8928;51.678;6.074;2022-12-26T10:27:17;10.30;99.90
17619;DHT22;8928;51.678;6.074;2022-12-26T10:30:14;10.30;99.90
17619;DHT22;8928;51.678;6.074;2022-12-26T10:33:09;10.40;99.90
17619;DHT22;8928;51.678;6.074;2022-12-26T10:35:58;10.40;99.90
17619;DHT22;8928;51.678;6.074;2022-12-26T10:38:49;10.40;99.90
17619;DHT22;8928;51.678;6.074;2022-12-26T10:41:41;10.50;99.90
17619;DHT22;8928;51.678;6.074;2022-12-26T10:44:30;10.50;99.90
17619;DHT22;8928;51.678;6.074;2022-12-26T10:47:24;10.60;99.90
17619;DHT22;8928;51.678;6.074;2022-12-26T10:50:15;10.70;99.90
17619;DHT22;8928;51.678;6.074;2022-12-26T10:53:05;10.80;99.90
17619;DHT22;8928;51.678;6.074;2022-12-26T10:55:52;10.80;99.90
17619;DHT22;8928;51.678;6.074;2022-12-26T10:58:42;10.90;99.90
17619;DHT22;8928;51.678;6.074;2022-12-26T11:01:35;10.80;99.90
17619;DHT22;8928;51.678;6.074;2022-12-26T11:04:24;10.70;99.90
17619;DHT22;8928;51.678;6.074;2022-12-26T11:07:15;10.30;99.90
17619;DHT22;8928;51.678;6.074;2022-12-26T11:10:06;9.50;99.90
17619;DHT22;8928;51.678;6.074;2022-12-26T11:13:04;9.10;99.90
17619;DHT22;8928;51.678;6.074;2022-12-26T11:15:52;9.00;99.90
17619;DHT22;8928;51.678;6.074;2022-12-26T11:18:46;9.00;99.90
17619;DHT22;8928;51.678;6.074;2022-12-26T11:21:35;9.00;99.90
17619;DHT22;8928;51.678;6.074;2022-12-26T11:24:23;8.90;99.90
17619;DHT22;8928;51.678;6.074;2022-12-26T11:27:17;8.90;99.90
17619;DHT22;8928;51.678;6.074;2022-12-26T11:30:24;8.90;99.90
17619;DHT22;8928;51.678;6.074;2022-12-26T11:33:18;9.00;99.90
17619;DHT22;8928;51.678;6.074;2022-12-26T11:36:15;9.00;99.90
17619;DHT22;8928;51.678;6.074;2022-12-26T11:39:06;9.10;99.90
17619;DHT22;8928;51.678;6.074;2022-12-26T11:41:54;9.10;99.90
17619;DHT22;8928;51.678;6.074;2022-12-26T11:44:43;9.10;99.90
17619;DHT22;8928;51.678;6.074;2022-12-26T11:47:31;9.10;99.90
17619;DHT22;8928;51.678;6.074;2022-12-26T11:50:19;9.00;99.90
17619;DHT22;8928;51.678;6.074;2022-12-26T11:53:15;8.80;99.90
17619;DHT22;8928;51.678;6.074;2022-12-26T11:56:05;8.50;99.90
17619;DHT22;8928;51.678;6.074;2022-12-26T11:59:05;8.30;99.90
17619;DHT22;8928;51.678;6.074;2022-12-26T12:02:27;8.30;99.90
17619;DHT22;8928;51.678;6.074;2022-12-26T12:05:25;8.30;99.90
17619;DHT22;8928;51.678;6.074;2022-12-26T12:08:29;8.20;99.90
17619;DHT22;8928;51.678;6.074;2022-12-26T12:11:26;8.10;99.90
17619;DHT22;8928;51.678;6.074;2022-12-26T12:14:34;8.10;99.90
17619;DHT22;8928;51.678;6.074;2022-12-26T12:17:26;8.00;99.90
17619;DHT22;8928;51.678;6.074;2022-12-26T12:20:24;7.90;99.90
17619;DHT22;8928;51.678;6.074;2022-12-26T12:23:28;8.00;99.90
17619;DHT22;8928;51.678;6.074;2022-12-26T12:26:24;7.90;99.90
17619;DHT22;8928;51.678;6.074;2022-12-26T12:29:26;7.80;99.90
17619;DHT22;8928;51.678;6.074;2022-12-26T12:32:24;7.80;99.90
17619;DHT22;8928;51.678;6.074;2022-12-26T12:35:28;7.90;99.90
17619;DHT22;8928;51.678;6.074;2022-12-26T12:38:25;7.80;99.90
17619;DHT22;8928;51.678;6.074;2022-12-26T12:41:26;7.90;99.90
17619;DHT22;8928;51.678;6.074;2022-12-26T12:44:20;7.80;99.90
17619;DHT22;8928;51.678;6.074;2022-12-26T12:47:14;7.70;99.90
17619;DHT22;8928;51.678;6.074;2022-12-26T12:50:14;7.60;99.90
17619;DHT22;8928;51.678;6.074;2022-12-26T12:53:11;7.60;99.90
17619;DHT22;8928;51.678;6.074;2022-12-26T12:56:09;7.60;99.90
17619;DHT22;8928;51.678;6.074;2022-12-26T12:59:06;7.60;99.90
17619;DHT22;8928;51.678;6.074;2022-12-26T13:02:00;7.50;99.90
17619;DHT22;8928;51.678;6.074;2022-12-26T13:04:53;7.50;99.90
17619;DHT22;8928;51.678;6.074;2022-12-26T13:07:45;7.40;99.90
17619;DHT22;8928;51.678;6.074;2022-12-26T13:10:36;7.40;99.90
17619;DHT22;8928;51.678;6.074;2022-12-26T13:13:31;7.40;99.90
17619;DHT22;8928;51.678;6.074;2022-12-26T13:16:24;7.40;99.90
17619;DHT22;8928;51.678;6.074;2022-12-26T13:19:16;7.40;99.90
17619;DHT22;8928;51.678;6.074;2022-12-26T13:22:09;7.40;99.90
17619;DHT22;8928;51.678;6.074;2022-12-26T13:24:58;7.30;99.90
17619;DHT22;8928;51.678;6.074;2022-12-26T13:27:47;7.30;99.90
17619;DHT22;8928;51.678;6.074;2022-12-26T13:30:36;7.20;99.90
17619;DHT22;8928;51.678;6.074;2022-12-26T13:33:24;7.20;99.90
17619;DHT22;8928;51.678;6.074;2022-12-26T13:36:34;7.30;99.90
17619;DHT22;8928;51.678;6.074;2022-12-26T13:39:33;7.30;99.90
17619;DHT22;8928;51.678;6.074;2022-12-26T13:42:29;7.40;99.90
17619;DHT22;8928;51.678;6.074;2022-12-26T13:45:49;7.30;99.90
17619;DHT22;8928;51.678;6.074;2022-12-26T13:48:56;7.30;99.90
17619;DHT22;8928;51.678;6.074;2022-12-26T13:51:49;7.10;99.90
17619;DHT22;8928;51.678;6.074;2022-12-26T13:55:18;7.10;99.90
17619;DHT22;8928;51.678;6.074;2022-12-26T13:57:45;7.00;99.90
17619;DHT22;8928;51.678;6.074;2022-12-26T14:00:41;6.90;99.90
17619;DHT22;8928;51.678;6.074;2022-12-26T14:03:49;6.90;99.90
17619;DHT22;8928;51.678;6.074;2022-12-26T14:07:04;6.90;99.90
17619;DHT22;8928;51.678;6.074;2022-12-26T14:10:02;6.80;99.90
17619;DHT22;8928;51.678;6.074;2022-12-26T14:12:59;6.70;99.90
17619;DHT22;8928;51.678;6.074;2022-12-26T14:15:54;6.70;99.90
17619;DHT22;8928;51.678;6.074;2022-12-26T14:18:47;6.70;99.90
17619;DHT22;8928;51.678;6.074;2022-12-26T14:21:45;6.70;99.90
17619;DHT22;8928;51.678;6.074;2022-12-26T14:24:45;6.70;99.90
17619;DHT22;8928;51.678;6.074;2022-12-26T14:27:42;6.70;99.90
17619;DHT22;8928;51.678;6.074;2022-12-26T14:30:35;6.80;99.90
17619;DHT22;8928;51.678;6.074;2022-12-26T14:33:29;6.80;99.90
17619;DHT22;8928;51.678;6.074;2022-12-26T14:36:24;6.80;99.90
17619;DHT22;8928;51.678;6.074;2022-12-26T14:39:24;6.70;99.90
17619;DHT22;8928;51.678;6.074;2022-12-26T14:42:22;6.70;99.90
17619;DHT22;8928;51.678;6.074;2022-12-26T14:45:47;6.80;99.90
17619;DHT22;8928;51.678;6.074;2022-12-26T14:48:52;6.80;99.90
17619;DHT22;8928;51.678;6.074;2022-12-26T14:51:40;6.80;99.90
17619;DHT22;8928;51.678;6.074;2022-12-26T14:54:39;6.80;99.90
17619;DHT22;8928;51.678;6.074;2022-12-26T14:57:53;6.80;99.90
17619;DHT22;8928;51.678;6.074;2022-12-26T15:00:41;6.70;99.90
17619;DHT22;8928;51.678;6.074;2022-12-26T15:03:45;6.60;99.90
17619;DHT22;8928;51.678;6.074;2022-12-26T15:07:05;6.50;99.90
17619;DHT22;8928;51.678;6.074;2022-12-26T15:10:20;6.50;99.90
17619;DHT22;8928;51.678;6.074;2022-12-26T15:17:00;6.20;99.90
17619;DHT22;8928;51.678;6.074;2022-12-26T15:20:33;6.10;99.90
17619;DHT22;8928;51.678;6.074;2022-12-26T15:23:57;5.90;99.90
17619;DHT22;8928;51.678;6.074;2022-12-26T15:27:04;5.80;99.90
17619;DHT22;8928;51.678;6.074;2022-12-26T15:30:15;5.60;99.90
17619;DHT22;8928;51.678;6.074;2022-12-26T15:33:07;5.40;99.90
17619;DHT22;8928;51.678;6.074;2022-12-26T15:36:03;5.30;99.90
17619;DHT22;8928;51.678;6.074;2022-12-26T15:38:56;5.20;99.90
17619;DHT22;8928;51.678;6.074;2022-12-26T15:41:46;5.10;99.90
17619;DHT22;8928;51.678;6.074;2022-12-26T15:44:38;5.10;99.90
17619;DHT22;8928;51.678;6.074;2022-12-26T15:47:34;5.00;99.90
17619;DHT22;8928;51.678;6.074;2022-12-26T15:50:26;4.90;99.90
17619;DHT22;8928;51.678;6.074;2022-12-26T15:53:24;4.70;99.90
17619;DHT22;8928;51.678;6.074;2022-12-26T15:56:32;4.70;99.90
17619;DHT22;8928;51.678;6.074;2022-12-26T15:59:54;4.60;99.90
17619;DHT22;8928;51.678;6.074;2022-12-26T16:03:11;4.50;99.90
17619;DHT22;8928;51.678;6.074;2022-12-26T16:06:14;4.40;99.90
17619;DHT22;8928;51.678;6.074;2022-12-26T16:09:14;4.40;99.90
17619;DHT22;8928;51.678;6.074;2022-12-26T16:12:22;4.30;99.90
17619;DHT22;8928;51.678;6.074;2022-12-26T16:15:15;4.30;99.90
17619;DHT22;8928;51.678;6.074;2022-12-26T16:18:15;4.30;99.90
17619;DHT22;8928;51.678;6.074;2022-12-26T16:21:05;4.30;99.90
17619;DHT22;8928;51.678;6.074;2022-12-26T16:24:11;4.20;99.90
17619;DHT22;8928;51.678;6.074;2022-12-26T16:27:00;4.10;99.90
17619;DHT22;8928;51.678;6.074;2022-12-26T16:29:50;4.10;99.90
17619;DHT22;8928;51.678;6.074;2022-12-26T16:32:40;4.10;99.90
17619;DHT22;8928;51.678;6.074;2022-12-26T16:35:31;4.00;99.90
17619;DHT22;8928;51.678;6.074;2022-12-26T16:38:24;4.10;99.90
17619;DHT22;8928;51.678;6.074;2022-12-26T16:41:18;4.10;99.90
17619;DHT22;8928;51.678;6.074;2022-12-26T16:44:25;4.00;99.90
17619;DHT22;8928;51.678;6.074;2022-12-26T16:47:14;3.90;99.90
17619;DHT22;8928;51.678;6.074;2022-12-26T16:50:03;3.80;99.90
17619;DHT22;8928;51.678;6.074;2022-12-26T16:53:05;3.90;99.90
17619;DHT22;8928;51.678;6.074;2022-12-26T16:55:56;3.90;99.90
17619;DHT22;8928;51.678;6.074;2022-12-26T16:58:45;3.80;99.90
17619;DHT22;8928;51.678;6.074;2022-12-26T17:01:33;3.80;99.90
17619;DHT22;8928;51.678;6.074;2022-12-26T17:04:23;3.80;99.90
17619;DHT22;8928;51.678;6.074;2022-12-26T17:07:15;3.70;99.90
17619;DHT22;8928;51.678;6.074;2022-12-26T17:10:05;3.60;99.90
17619;DHT22;8928;51.678;6.074;2022-12-26T17:12:53;3.40;99.90
17619;DHT22;8928;51.678;6.074;2022-12-26T17:15:49;3.30;99.90
17619;DHT22;8928;51.678;6.074;2022-12-26T17:18:43;3.20;99.90
17619;DHT22;8928;51.678;6.074;2022-12-26T17:21:31;3.10;99.90
17619;DHT22;8928;51.678;6.074;2022-12-26T17:24:24;3.00;99.90
17619;DHT22;8928;51.678;6.074;2022-12-26T17:27:17;2.90;99.90
17619;DHT22;8928;51.678;6.074;2022-12-26T17:30:20;3.00;99.90
17619;DHT22;8928;51.678;6.074;2022-12-26T17:33:10;2.90;99.90
17619;DHT22;8928;51.678;6.074;2022-12-26T17:36:02;2.90;99.90
17619;DHT22;8928;51.678;6.074;2022-12-26T17:38:52;2.80;99.90
17619;DHT22;8928;51.678;6.074;2022-12-26T17:41:48;2.80;99.90
17619;DHT22;8928;51.678;6.074;2022-12-26T17:44:40;2.70;99.90
17619;DHT22;8928;51.678;6.074;2022-12-26T17:47:27;2.70;99.90
17619;DHT22;8928;51.678;6.074;2022-12-26T17:50:15;2.70;99.90
17619;DHT22;8928;51.678;6.074;2022-12-26T17:53:03;2.60;99.90
17619;DHT22;8928;51.678;6.074;2022-12-26T17:55:51;2.50;99.90
17619;DHT22;8928;51.678;6.074;2022-12-26T17:58:39;2.50;99.90
17619;DHT22;8928;51.678;6.074;2022-12-26T18:01:27;2.60;99.90
17619;DHT22;8928;51.678;6.074;2022-12-26T18:04:14;2.60;99.90
17619;DHT22;8928;51.678;6.074;2022-12-26T18:07:02;2.60;99.90
17619;DHT22;8928;51.678;6.074;2022-12-26T18:09:49;2.60;99.90
17619;DHT22;8928;51.678;6.074;2022-12-26T18:12:37;2.60;99.90
17619;DHT22;8928;51.678;6.074;2022-12-26T18:15:25;2.60;99.90
17619;DHT22;8928;51.678;6.074;2022-12-26T18:18:21;2.60;99.90
17619;DHT22;8928;51.678;6.074;2022-12-26T18:21:12;2.50;99.90
17619;DHT22;8928;51.678;6.074;2022-12-26T18:23:59;2.50;99.90
17619;DHT22;8928;51.678;6.074;2022-12-26T18:26:47;2.40;99.90
17619;DHT22;8928;51.678;6.074;2022-12-26T18:29:35;2.40;99.90
17619;DHT22;8928;51.678;6.074;2022-12-26T18:32:27;2.50;99.90
17619;DHT22;8928;51.678;6.074;2022-12-26T18:35:16;2.50;99.90
17619;DHT22;8928;51.678;6.074;2022-12-26T18:38:04;2.50;99.90
17619;DHT22;8928;51.678;6.074;2022-12-26T18:40:51;2.50;99.90
17619;DHT22;8928;51.678;6.074;2022-12-26T18:43:38;2.40;99.90
17619;DHT22;8928;51.678;6.074;2022-12-26T18:46:26;2.40;99.90
17619;DHT22;8928;51.678;6.074;2022-12-26T18:49:14;2.40;99.90
17619;DHT22;8928;51.678;6.074;2022-12-26T18:52:03;2.30;99.90
17619;DHT22;8928;51.678;6.074;2022-12-26T18:54:50;2.30;99.90
17619;DHT22;8928;51.678;6.074;2022-12-26T18:57:37;2.20;99.90
17619;DHT22;8928;51.678;6.074;2022-12-26T19:00:25;2.20;99.90
17619;DHT22;8928;51.678;6.074;2022-12-26T19:03:12;2.20;99.90
17619;DHT22;8928;51.678;6.074;2022-12-26T19:05:59;2.10;99.90
17619;DHT22;8928;51.678;6.074;2022-12-26T19:08:48;2.10;99.90
17619;DHT22;8928;51.678;6.074;2022-12-26T19:11:35;2.10;99.90